Time;durP1;ratioP1;P1;durP2;ratioP2;P2;SDS_P1;SDS_P2;PMS_P1;PMS_P2;Temp;Humidity;BMP_temperature;BMP_pressure;BME280_temperature;BME280_humidity;BME280_pressure;Samples;Min_cycle;Max_cycle;Signal;HPM_P1;HPM_P2
2023/07/28 00:01:17;;;;;;;9.82;8.02;;;;;;;;;;4986691;28;20252;-60
2023/07/28 00:03:42;;;;;;;11.10;9.05;;;;;;;;;;4989118;28;20229;-60
2023/07/28 00:06:07;;;;;;;10.10;9.07;;;;;;;;;;4986520;28;20649;-60
2023/07/28 00:08:32;;;;;;;11.65;8.63;;;;;;;;;;4984219;28;20708;-60
2023/07/28 00:10:58;;;;;;;13.52;9.90;;;;;;;;;;4988229;28;20216;-60
2023/07/28 00:13:23;;;;;;;11.40;9.35;;;;;;;;;;4986278;28;20260;-60
2023/07/28 00:15:48;;;;;;;11.65;9.65;;;;;;;;;;4987203;28;20213;-60
2023/07/28 00:18:14;;;;;;;12.95;10.50;;;;;;;;;;4988049;28;20209;-59
2023/07/28 00:20:39;;;;;;;11.35;9.43;;;;;;;;;;4988313;28;20240;-59
2023/07/28 00:23:04;;;;;;;13.18;10.10;;;;;;;;;;4967545;28;20213;-60
2023/07/28 00:25:30;;;;;;;13.07;9.60;;;;;;;;;;4987391;28;20231;-60
2023/07/28 00:27:55;;;;;;;11.65;9.55;;;;;;;;;;4987705;28;20205;-60
2023/07/28 00:30:21;;;;;;;10.00;9.00;;;;;;;;;;4988560;28;20275;-60
2023/07/28 00:32:46;;;;;;;13.70;9.90;;;;;;;;;;4987121;28;20224;-60
2023/07/28 00:35:12;;;;;;;12.57;10.55;;;;;;;;;;4992067;28;20627;-60
2023/07/28 00:37:37;;;;;;;11.35;10.15;;;;;;;;;;4993047;28;20217;-60
2023/07/28 00:40:03;;;;;;;11.15;10.00;;;;;;;;;;4978222;28;20782;-60
2023/07/28 00:42:29;;;;;;;13.25;10.43;;;;;;;;;;4981302;28;20239;-60
2023/07/28 00:44:54;;;;;;;13.82;10.07;;;;;;;;;;4983006;28;20688;-60
2023/07/28 00:47:20;;;;;;;11.27;10.18;;;;;;;;;;4981802;28;20241;-60
2023/07/28 00:49:45;;;;;;;12.48;10.32;;;;;;;;;;4980729;28;20217;-60
2023/07/28 00:52:10;;;;;;;11.38;10.15;;;;;;;;;;4965157;28;20275;-60
2023/07/28 00:54:35;;;;;;;11.98;10.68;;;;;;;;;;4959816;28;20275;-60
2023/07/28 00:57:01;;;;;;;11.43;10.23;;;;;;;;;;4971788;28;20299;-60
2023/07/28 00:59:27;;;;;;;12.88;10.85;;;;;;;;;;4974718;28;20252;-60
2023/07/28 01:01:52;;;;;;;17.27;10.05;;;;;;;;;;4981205;28;21195;-60
2023/07/28 01:04:17;;;;;;;14.93;10.70;;;;;;;;;;4980171;28;20212;-61
2023/07/28 01:06:47;;;;;;;11.20;9.98;;;;;;;;;;4980444;28;20595;-60
2023/07/28 01:09:14;;;;;;;11.32;9.88;;;;;;;;;;4982239;28;20201;-60
2023/07/28 01:11:52;;;;;;;10.98;9.88;;;;;;;;;;4964642;28;20267;-60
2023/07/28 01:14:17;;;;;;;11.00;9.10;;;;;;;;;;4979208;28;20217;-60
2023/07/28 01:16:42;;;;;;;15.23;10.38;;;;;;;;;;4977800;28;20294;-60
2023/07/28 01:19:08;;;;;;;11.80;10.55;;;;;;;;;;4974064;28;21379;-60
2023/07/28 01:21:33;;;;;;;14.57;10.38;;;;;;;;;;4955919;28;20217;-60
2023/07/28 01:24:08;;;;;;;11.88;10.65;;;;;;;;;;4976986;28;20213;-60
2023/07/28 01:26:35;;;;;;;16.75;10.15;;;;;;;;;;4982036;28;20571;-60
2023/07/28 01:29:02;;;;;;;11.27;10.00;;;;;;;;;;4981742;28;20358;-60
2023/07/28 01:31:27;;;;;;;14.05;10.35;;;;;;;;;;4961622;28;20282;-60
2023/07/28 01:33:53;;;;;;;12.43;9.95;;;;;;;;;;4982466;28;20728;-60
2023/07/28 01:36:18;;;;;;;14.85;10.65;;;;;;;;;;4980797;28;20799;-59
2023/07/28 01:38:43;;;;;;;14.27;10.77;;;;;;;;;;4978394;28;20225;-60
2023/07/28 01:41:09;;;;;;;13.00;11.10;;;;;;;;;;4973596;28;20229;-60
2023/07/28 01:43:34;;;;;;;12.00;10.73;;;;;;;;;;4973868;28;20221;-60
2023/07/28 01:45:59;;;;;;;12.68;10.70;;;;;;;;;;4974215;28;20217;-60
2023/07/28 01:48:25;;;;;;;11.70;10.45;;;;;;;;;;4979242;28;20224;-60
2023/07/28 01:50:51;;;;;;;12.38;10.82;;;;;;;;;;4981662;28;20213;-60
2023/07/28 01:53:16;;;;;;;13.07;10.90;;;;;;;;;;4980967;28;20217;-60
2023/07/28 01:55:41;;;;;;;18.50;11.15;;;;;;;;;;4979976;28;20264;-60
2023/07/28 01:58:06;;;;;;;12.73;10.93;;;;;;;;;;4980677;28;20764;-60
2023/07/28 02:00:32;;;;;;;14.18;11.15;;;;;;;;;;4981357;28;20910;-60
2023/07/28 02:02:58;;;;;;;20.92;12.43;;;;;;;;;;4973916;28;20221;-60
2023/07/28 02:05:24;;;;;;;15.27;12.02;;;;;;;;;;4972281;28;20946;-60
2023/07/28 02:07:49;;;;;;;14.95;11.88;;;;;;;;;;4973669;28;20213;-60
2023/07/28 02:10:14;;;;;;;15.85;11.90;;;;;;;;;;4979715;28;20216;-60
2023/07/28 02:12:39;;;;;;;14.82;11.85;;;;;;;;;;4979700;28;20225;-60
2023/07/28 02:15:05;;;;;;;19.95;12.38;;;;;;;;;;4980075;28;20213;-60
2023/07/28 02:17:31;;;;;;;14.02;11.45;;;;;;;;;;4963999;28;21113;-60
2023/07/28 02:19:56;;;;;;;13.85;11.38;;;;;;;;;;4978204;28;20716;-60
2023/07/28 02:22:21;;;;;;;14.77;12.85;;;;;;;;;;4980200;28;20224;-60
2023/07/28 02:24:46;;;;;;;17.17;12.27;;;;;;;;;;4976684;28;20209;-60
2023/07/28 02:27:12;;;;;;;15.00;11.90;;;;;;;;;;4971584;28;20652;-60
2023/07/28 02:29:37;;;;;;;16.20;11.70;;;;;;;;;;4972034;28;20270;-60
2023/07/28 02:32:02;;;;;;;15.38;12.43;;;;;;;;;;4977559;28;20950;-60
2023/07/28 02:34:27;;;;;;;17.23;11.65;;;;;;;;;;4980275;28;20248;-59
2023/07/28 02:36:53;;;;;;;16.20;11.77;;;;;;;;;;4979240;28;20214;-60
2023/07/28 02:39:18;;;;;;;18.02;11.98;;;;;;;;;;4984115;28;20251;-59
2023/07/28 02:41:44;;;;;;;17.50;12.38;;;;;;;;;;4989769;28;20604;-60
2023/07/28 02:44:09;;;;;;;17.77;11.70;;;;;;;;;;4988183;28;21635;-60
2023/07/28 02:46:34;;;;;;;21.17;12.95;;;;;;;;;;4989407;28;20233;-60
2023/07/28 02:49:00;;;;;;;16.30;12.85;;;;;;;;;;4990010;28;20217;-60
2023/07/28 02:51:25;;;;;;;18.80;12.75;;;;;;;;;;4989136;28;20647;-60
2023/07/28 02:53:50;;;;;;;15.93;12.27;;;;;;;;;;4988836;28;20267;-60
2023/07/28 02:56:15;;;;;;;19.40;13.07;;;;;;;;;;4989126;28;20229;-60
2023/07/28 02:58:41;;;;;;;19.65;13.60;;;;;;;;;;4990708;28;20692;-60
2023/07/28 03:01:06;;;;;;;21.27;13.55;;;;;;;;;;4987013;28;20225;-59
2023/07/28 03:03:31;;;;;;;20.40;13.75;;;;;;;;;;4989931;28;20233;-60
2023/07/28 03:05:57;;;;;;;22.40;14.02;;;;;;;;;;4990293;28;20224;-60
2023/07/28 03:08:22;;;;;;;22.92;14.32;;;;;;;;;;4988019;28;20265;-60
2023/07/28 03:10:47;;;;;;;21.98;15.13;;;;;;;;;;4988953;28;20214;-60
2023/07/28 03:13:12;;;;;;;22.85;14.98;;;;;;;;;;4989844;28;20225;-59
2023/07/28 03:15:38;;;;;;;21.35;14.43;;;;;;;;;;4989090;28;20209;-59
2023/07/28 03:18:03;;;;;;;24.05;15.48;;;;;;;;;;4987296;28;20217;-60
2023/07/28 03:20:28;;;;;;;24.55;16.60;;;;;;;;;;4989788;28;20232;-60
2023/07/28 03:22:54;;;;;;;23.92;16.17;;;;;;;;;;4989768;28;20630;-60
2023/07/28 03:25:20;;;;;;;24.20;15.57;;;;;;;;;;4986435;28;20225;-60
2023/07/28 03:27:45;;;;;;;23.42;15.40;;;;;;;;;;4989131;28;20292;-60
2023/07/28 03:30:10;;;;;;;21.58;15.50;;;;;;;;;;4988468;28;20300;-60
2023/07/28 03:32:36;;;;;;;25.13;16.85;;;;;;;;;;4987922;28;20218;-60
2023/07/28 03:35:01;;;;;;;23.38;16.63;;;;;;;;;;4987979;28;20220;-60
2023/07/28 03:37:26;;;;;;;24.30;16.38;;;;;;;;;;4989247;28;20213;-59
2023/07/28 03:39:52;;;;;;;27.92;17.15;;;;;;;;;;4989094;28;20292;-60
2023/07/28 03:42:17;;;;;;;24.58;16.83;;;;;;;;;;4986785;28;20676;-60
2023/07/28 03:44:42;;;;;;;29.83;18.42;;;;;;;;;;4988923;28;20219;-60
2023/07/28 03:47:08;;;;;;;29.58;18.25;;;;;;;;;;4988657;28;20237;-60
2023/07/28 03:49:33;;;;;;;31.83;18.13;;;;;;;;;;4986723;28;20219;-60
2023/07/28 03:51:59;;;;;;;27.58;18.30;;;;;;;;;;4988646;28;20241;-60
2023/07/28 03:54:24;;;;;;;24.38;17.30;;;;;;;;;;4989104;28;20224;-60
2023/07/28 03:56:49;;;;;;;28.33;19.00;;;;;;;;;;4987876;28;20209;-60
2023/07/28 03:59:15;;;;;;;31.48;19.75;;;;;;;;;;4987924;28;20576;-60
2023/07/28 04:01:40;;;;;;;34.05;19.65;;;;;;;;;;4992001;28;20225;-60
2023/07/28 04:04:05;;;;;;;28.20;18.95;;;;;;;;;;4988388;28;20209;-60
2023/07/28 04:06:39;;;;;;;32.47;19.83;;;;;;;;;;4989573;28;20634;-60
2023/07/28 04:09:04;;;;;;;29.55;18.33;;;;;;;;;;4986448;28;20213;-60
2023/07/28 04:11:30;;;;;;;33.75;19.73;;;;;;;;;;4988558;28;20277;-60
2023/07/28 04:13:55;;;;;;;36.10;20.27;;;;;;;;;;4988679;28;20209;-60
2023/07/28 04:16:20;;;;;;;34.47;20.60;;;;;;;;;;4987634;28;20220;-60
2023/07/28 04:18:46;;;;;;;37.53;21.48;;;;;;;;;;4987083;28;20213;-60
2023/07/28 04:21:11;;;;;;;32.10;19.40;;;;;;;;;;4988072;28;20228;-60
2023/07/28 04:23:36;;;;;;;33.13;20.42;;;;;;;;;;4989145;28;20600;-60
2023/07/28 04:26:01;;;;;;;39.53;21.02;;;;;;;;;;4985888;28;20213;-60
2023/07/28 04:28:27;;;;;;;31.08;20.30;;;;;;;;;;4988506;28;20227;-60
2023/07/28 04:30:52;;;;;;;34.67;20.17;;;;;;;;;;4988704;28;20676;-60
2023/07/28 04:33:17;;;;;;;32.90;20.45;;;;;;;;;;4976548;28;20224;-60
2023/07/28 04:35:42;;;;;;;32.40;20.52;;;;;;;;;;4977888;28;20236;-60
2023/07/28 04:38:08;;;;;;;36.33;20.75;;;;;;;;;;4978246;28;20229;-60
2023/07/28 04:40:33;;;;;;;32.78;20.17;;;;;;;;;;4973684;28;20371;-59
2023/07/28 04:42:58;;;;;;;34.40;20.10;;;;;;;;;;4969564;28;20205;-60
2023/07/28 04:45:24;;;;;;;30.92;19.90;;;;;;;;;;4970701;28;20217;-59
2023/07/28 04:47:49;;;;;;;36.42;20.23;;;;;;;;;;4975107;28;20241;-60
2023/07/28 04:50:14;;;;;;;35.38;20.02;;;;;;;;;;4975792;28;20299;-59
2023/07/28 04:52:39;;;;;;;34.30;19.60;;;;;;;;;;4978959;28;20244;-60
2023/07/28 04:55:05;;;;;;;33.90;19.95;;;;;;;;;;4977593;28;21012;-60
2023/07/28 04:57:30;;;;;;;31.55;20.85;;;;;;;;;;4977951;28;20208;-60
2023/07/28 04:59:55;;;;;;;35.80;20.75;;;;;;;;;;4977536;28;20315;-60
2023/07/28 05:02:21;;;;;;;36.10;20.40;;;;;;;;;;4976248;28;20217;-60
2023/07/28 05:04:46;;;;;;;42.20;20.63;;;;;;;;;;4970819;28;20316;-60
2023/07/28 05:07:11;;;;;;;30.40;19.42;;;;;;;;;;4969116;28;20216;-60
2023/07/28 05:09:37;;;;;;;39.65;21.45;;;;;;;;;;4972153;28;20224;-59
2023/07/28 05:12:03;;;;;;;39.85;20.88;;;;;;;;;;4978277;28;20605;-60
2023/07/28 05:14:28;;;;;;;33.03;19.77;;;;;;;;;;4976699;28;21138;-60
2023/07/28 05:16:54;;;;;;;30.55;18.73;;;;;;;;;;4977610;28;20303;-60
2023/07/28 05:19:19;;;;;;;33.75;19.38;;;;;;;;;;4974095;28;20235;-60
2023/07/28 05:21:44;;;;;;;34.50;18.83;;;;;;;;;;4980991;28;20217;-60
2023/07/28 05:24:10;;;;;;;35.72;19.77;;;;;;;;;;4980331;28;20336;-60
2023/07/28 05:26:35;;;;;;;32.20;19.80;;;;;;;;;;4976080;28;20225;-60
2023/07/28 05:29:00;;;;;;;34.90;20.85;;;;;;;;;;4973480;28;20224;-61
2023/07/28 05:31:25;;;;;;;33.10;20.17;;;;;;;;;;4972672;28;21127;-60
2023/07/28 05:33:53;;;;;;;40.17;21.50;;;;;;;;;;4981041;28;20217;-60
2023/07/28 05:36:19;;;;;;;37.55;22.40;;;;;;;;;;4981633;28;20209;-60
2023/07/28 05:38:44;;;;;;;44.13;21.35;;;;;;;;;;4979761;28;21072;-60
2023/07/28 05:41:09;;;;;;;82.68;25.70;;;;;;;;;;4978607;28;20279;-59
2023/07/28 05:43:34;;;;;;;48.95;22.85;;;;;;;;;;4979625;28;20240;-59
2023/07/28 05:46:00;;;;;;;42.00;22.33;;;;;;;;;;4978196;28;20209;-60
2023/07/28 05:48:25;;;;;;;34.47;21.45;;;;;;;;;;4976153;28;20232;-60
2023/07/28 05:50:53;;;;;;;42.42;21.60;;;;;;;;;;4973458;28;21213;-61
2023/07/28 05:53:19;;;;;;;39.40;22.80;;;;;;;;;;4973847;28;20303;-60
2023/07/28 05:55:44;;;;;;;38.53;21.45;;;;;;;;;;4975920;28;20243;-60
2023/07/28 05:58:10;;;;;;;40.35;23.15;;;;;;;;;;4981166;28;20340;-60
2023/07/28 06:00:36;;;;;;;46.42;23.88;;;;;;;;;;4981635;28;20747;-60
2023/07/28 06:03:02;;;;;;;41.58;22.15;;;;;;;;;;4962256;28;20213;-61
2023/07/28 06:05:27;;;;;;;38.58;22.10;;;;;;;;;;4982300;28;20560;-60
2023/07/28 06:07:52;;;;;;;47.45;23.58;;;;;;;;;;4989867;28;20237;-60
2023/07/28 06:10:18;;;;;;;37.92;22.35;;;;;;;;;;4989430;28;20213;-60
2023/07/28 06:12:43;;;;;;;43.40;22.60;;;;;;;;;;4988665;28;20311;-60
2023/07/28 06:15:08;;;;;;;41.60;22.77;;;;;;;;;;4990052;28;20217;-60
2023/07/28 06:17:34;;;;;;;39.15;21.95;;;;;;;;;;4990725;28;20209;-60
2023/07/28 06:19:59;;;;;;;44.78;22.65;;;;;;;;;;4986319;28;20644;-60
2023/07/28 06:22:24;;;;;;;48.90;22.70;;;;;;;;;;4989545;28;20209;-60
2023/07/28 06:24:50;;;;;;;38.80;22.08;;;;;;;;;;4990283;28;20217;-62
2023/07/28 06:27:15;;;;;;;39.25;22.33;;;;;;;;;;4988529;28;20612;-62
2023/07/28 06:29:40;;;;;;;40.20;21.75;;;;;;;;;;4989430;28;20795;-62
2023/07/28 06:32:06;;;;;;;32.42;20.10;;;;;;;;;;4989410;28;20236;-62
2023/07/28 06:34:31;;;;;;;30.98;19.80;;;;;;;;;;4989230;28;20266;-62
2023/07/28 06:36:57;;;;;;;35.50;20.10;;;;;;;;;;4988474;28;20209;-62
2023/07/28 06:39:24;;;;;;;35.10;20.05;;;;;;;;;;4989766;28;20228;-61
2023/07/28 06:41:49;;;;;;;28.48;18.67;;;;;;;;;;4992091;28;20221;-61
2023/07/28 06:44:14;;;;;;;41.33;19.88;;;;;;;;;;4980475;28;20602;-60
2023/07/28 06:46:39;;;;;;;39.70;21.30;;;;;;;;;;4989231;28;20241;-60
2023/07/28 06:49:05;;;;;;;34.20;19.75;;;;;;;;;;4989548;28;20240;-60
2023/07/28 06:51:30;;;;;;;34.88;19.30;;;;;;;;;;4988951;28;20576;-60
2023/07/28 06:53:56;;;;;;;27.63;19.02;;;;;;;;;;4989182;28;20303;-60
2023/07/28 06:56:21;;;;;;;30.98;19.40;;;;;;;;;;4989010;28;20225;-59
2023/07/28 06:58:47;;;;;;;33.28;18.67;;;;;;;;;;4990140;28;20217;-59
2023/07/28 07:01:12;;;;;;;26.73;18.02;;;;;;;;;;4986813;28;20217;-60
2023/07/28 07:03:37;;;;;;;74.07;21.88;;;;;;;;;;4990501;28;20213;-59
2023/07/28 07:06:03;;;;;;;31.67;19.13;;;;;;;;;;4989378;28;20304;-60
2023/07/28 07:08:28;;;;;;;32.65;19.17;;;;;;;;;;4987812;28;20236;-59
2023/07/28 07:10:53;;;;;;;26.85;19.02;;;;;;;;;;4989194;28;20217;-60
2023/07/28 07:13:18;;;;;;;27.08;19.35;;;;;;;;;;4989475;28;20240;-60
2023/07/28 07:15:44;;;;;;;36.05;21.15;;;;;;;;;;4988236;28;20213;-60
2023/07/28 07:18:09;;;;;;;61.42;23.10;;;;;;;;;;4987828;28;20228;-59
2023/07/28 07:20:35;;;;;;;48.95;22.05;;;;;;;;;;4989510;28;20663;-60
2023/07/28 07:23:01;;;;;;;33.38;22.52;;;;;;;;;;4988966;28;20332;-60
2023/07/28 07:25:26;;;;;;;35.25;22.23;;;;;;;;;;4987152;28;20217;-59
2023/07/28 07:27:51;;;;;;;46.75;22.15;;;;;;;;;;4989813;28;20217;-61
2023/07/28 07:30:17;;;;;;;36.88;22.70;;;;;;;;;;4988534;28;20268;-60
2023/07/28 07:32:42;;;;;;;33.80;21.60;;;;;;;;;;4988016;28;20577;-61
2023/07/28 07:35:08;;;;;;;36.60;21.85;;;;;;;;;;4987819;28;20236;-62
2023/07/28 07:37:33;;;;;;;37.03;21.85;;;;;;;;;;4989113;28;20209;-61
2023/07/28 07:40:00;;;;;;;37.75;21.65;;;;;;;;;;4988369;28;20711;-61
2023/07/28 07:42:26;;;;;;;37.92;21.85;;;;;;;;;;4989839;28;20308;-62
2023/07/28 07:44:51;;;;;;;35.78;21.70;;;;;;;;;;4991721;28;20641;-61
2023/07/28 07:47:16;;;;;;;35.63;22.15;;;;;;;;;;4986781;28;20225;-61
2023/07/28 07:49:42;;;;;;;30.63;19.70;;;;;;;;;;4989461;28;20221;-61
2023/07/28 07:52:09;;;;;;;32.55;20.10;;;;;;;;;;4987963;28;20224;-61
2023/07/28 07:54:34;;;;;;;29.52;18.95;;;;;;;;;;4987298;28;20261;-61
2023/07/28 07:56:59;;;;;;;36.70;19.10;;;;;;;;;;4988755;28;20356;-61
2023/07/28 07:59:27;;;;;;;33.03;18.55;;;;;;;;;;4970688;28;20219;-61
2023/07/28 08:01:53;;;;;;;26.17;17.48;;;;;;;;;;4988169;28;20232;-61
2023/07/28 08:04:18;;;;;;;29.33;15.77;;;;;;;;;;4987216;28;20205;-61
2023/07/28 08:06:43;;;;;;;23.88;15.30;;;;;;;;;;4988869;28;20229;-61
2023/07/28 08:09:09;;;;;;;24.98;15.73;;;;;;;;;;4987919;28;20642;-61
2023/07/28 08:11:35;;;;;;;25.15;14.30;;;;;;;;;;4990362;28;20220;-61
2023/07/28 08:14:00;;;;;;;21.40;15.07;;;;;;;;;;4991175;28;20578;-61
2023/07/28 08:16:25;;;;;;;23.30;15.10;;;;;;;;;;4987299;28;20255;-61
2023/07/28 08:18:51;;;;;;;26.35;15.95;;;;;;;;;;4987935;28;20397;-61
2023/07/28 08:21:16;;;;;;;22.88;14.68;;;;;;;;;;4988088;28;20332;-61
2023/07/28 08:23:41;;;;;;;23.40;14.98;;;;;;;;;;4987433;28;20213;-61
2023/07/28 08:26:07;;;;;;;25.38;14.50;;;;;;;;;;4986072;28;20723;-61
2023/07/28 08:28:32;;;;;;;23.42;15.27;;;;;;;;;;4988630;28;20224;-61
2023/07/28 08:30:58;;;;;;;22.80;15.00;;;;;;;;;;4988352;28;20251;-61
2023/07/28 08:33:24;;;;;;;20.77;13.90;;;;;;;;;;4985182;28;20621;-61
2023/07/28 08:35:49;;;;;;;21.35;15.25;;;;;;;;;;4988787;28;20742;-61
2023/07/28 08:38:14;;;;;;;22.88;14.32;;;;;;;;;;4987645;28;20320;-61
2023/07/28 08:40:40;;;;;;;21.55;14.52;;;;;;;;;;4986116;28;20693;-61
2023/07/28 08:43:05;;;;;;;21.95;14.05;;;;;;;;;;4987279;28;20217;-61
2023/07/28 08:45:31;;;;;;;23.48;15.13;;;;;;;;;;4988430;28;20240;-61
2023/07/28 08:47:56;;;;;;;20.58;14.98;;;;;;;;;;4987135;28;20225;-61
2023/07/28 08:50:21;;;;;;;19.00;14.18;;;;;;;;;;4986135;28;20216;-61
2023/07/28 08:52:50;;;;;;;19.13;14.23;;;;;;;;;;4988332;28;20352;-61
2023/07/28 08:55:15;;;;;;;18.77;14.50;;;;;;;;;;4990337;28;20209;-61
2023/07/28 08:57:40;;;;;;;20.15;14.25;;;;;;;;;;4989815;28;20233;-61
2023/07/28 09:00:07;;;;;;;18.85;14.80;;;;;;;;;;4991496;28;20222;-61
2023/07/28 09:02:32;;;;;;;24.73;15.70;;;;;;;;;;4992041;28;20240;-61
2023/07/28 09:04:57;;;;;;;27.00;15.38;;;;;;;;;;4990752;28;20288;-61
2023/07/28 09:07:22;;;;;;;25.50;15.88;;;;;;;;;;4990125;28;20209;-61
2023/07/28 09:09:48;;;;;;;22.30;14.88;;;;;;;;;;4990698;28;20295;-60
2023/07/28 09:12:13;;;;;;;22.10;15.02;;;;;;;;;;4990807;28;20209;-60
2023/07/28 09:14:38;;;;;;;24.63;15.02;;;;;;;;;;4989241;28;20693;-60
2023/07/28 09:17:06;;;;;;;21.95;15.05;;;;;;;;;;4990712;28;20220;-60
2023/07/28 09:19:31;;;;;;;20.60;14.63;;;;;;;;;;4972463;28;20221;-60
2023/07/28 09:21:58;;;;;;;21.45;14.40;;;;;;;;;;4989379;28;20633;-60
2023/07/28 09:24:24;;;;;;;18.60;14.05;;;;;;;;;;4990200;28;20709;-60
2023/07/28 09:26:50;;;;;;;18.58;12.60;;;;;;;;;;4973548;28;20235;-60
2023/07/28 09:29:17;;;;;;;32.08;13.68;;;;;;;;;;4989444;28;20579;-60
2023/07/28 09:31:42;;;;;;;21.10;13.13;;;;;;;;;;4989724;28;20237;-60
2023/07/28 09:34:08;;;;;;;23.00;12.38;;;;;;;;;;4990828;28;20295;-60
2023/07/28 09:36:34;;;;;;;23.63;12.48;;;;;;;;;;4993257;28;20681;-60
2023/07/28 09:38:59;;;;;;;17.30;11.80;;;;;;;;;;4993832;28;20740;-60
2023/07/28 09:41:25;;;;;;;17.83;12.65;;;;;;;;;;4991922;28;20232;-60
2023/07/28 09:43:50;;;;;;;17.60;12.70;;;;;;;;;;4993341;28;20570;-60
2023/07/28 09:46:16;;;;;;;20.15;12.52;;;;;;;;;;4993015;28;20205;-60
2023/07/28 09:48:42;;;;;;;19.40;12.95;;;;;;;;;;4976474;28;20275;-60
2023/07/28 09:51:09;;;;;;;23.88;13.38;;;;;;;;;;4992626;28;20224;-61
2023/07/28 09:53:35;;;;;;;27.90;13.77;;;;;;;;;;4993140;28;20551;-61
2023/07/28 09:56:02;;;;;;;17.50;12.88;;;;;;;;;;4993025;28;20581;-60
2023/07/28 09:58:27;;;;;;;30.83;13.93;;;;;;;;;;4975889;28;20731;-60
2023/07/28 10:00:53;;;;;;;23.10;12.98;;;;;;;;;;4976254;28;20237;-60
2023/07/28 10:03:18;;;;;;;22.17;13.20;;;;;;;;;;4975756;28;20295;-60
2023/07/28 10:05:43;;;;;;;18.27;12.10;;;;;;;;;;4992098;28;20299;-60
2023/07/28 10:08:09;;;;;;;14.75;11.88;;;;;;;;;;4994677;28;20207;-60
2023/07/28 10:10:34;;;;;;;19.40;12.10;;;;;;;;;;4993587;28;20216;-60
2023/07/28 10:12:59;;;;;;;18.30;12.20;;;;;;;;;;4971436;28;20931;-60
2023/07/28 10:15:32;;;;;;;15.88;12.50;;;;;;;;;;4973381;28;20221;-60
2023/07/28 10:17:58;;;;;;;17.10;12.63;;;;;;;;;;4993364;28;20581;-60
2023/07/28 10:20:30;;;;;;;19.27;11.48;;;;;;;;;;4992252;28;20228;-60
2023/07/28 10:23:02;;;;;;;19.33;11.18;;;;;;;;;;4992858;28;20304;-60
2023/07/28 10:25:28;;;;;;;23.73;11.23;;;;;;;;;;4992262;28;20213;-60
2023/07/28 10:27:53;;;;;;;15.50;10.73;;;;;;;;;;4993265;28;20673;-60
2023/07/28 10:30:20;;;;;;;23.25;11.50;;;;;;;;;;4971758;28;20225;-60
2023/07/28 10:32:48;;;;;;;14.88;10.88;;;;;;;;;;4973343;28;20293;-60
2023/07/28 10:35:13;;;;;;;14.65;10.65;;;;;;;;;;4985574;28;20231;-60
2023/07/28 10:37:38;;;;;;;14.00;9.88;;;;;;;;;;4992760;28;20206;-60
2023/07/28 10:40:22;;;;;;;11.55;9.23;;;;;;;;;;4991423;28;20218;-60
2023/07/28 10:42:48;;;;;;;11.20;9.55;;;;;;;;;;4992673;28;20223;-60
2023/07/28 10:45:13;;;;;;;13.88;10.05;;;;;;;;;;4994621;28;20655;-60
2023/07/28 10:47:39;;;;;;;13.02;9.43;;;;;;;;;;4994556;28;20252;-60
2023/07/28 10:50:05;;;;;;;13.07;9.48;;;;;;;;;;4991949;28;20205;-60
2023/07/28 10:52:30;;;;;;;12.80;9.38;;;;;;;;;;4992426;28;20217;-60
2023/07/28 10:54:57;;;;;;;12.90;9.90;;;;;;;;;;4991993;28;20217;-60
2023/07/28 10:57:25;;;;;;;16.65;9.88;;;;;;;;;;4975062;28;20227;-59
2023/07/28 10:59:51;;;;;;;16.83;9.40;;;;;;;;;;4993089;28;20213;-59
2023/07/28 11:02:16;;;;;;;19.13;10.55;;;;;;;;;;4989143;28;20229;-59
2023/07/28 11:04:46;;;;;;;13.30;10.10;;;;;;;;;;4990356;28;20740;-59
2023/07/28 11:07:11;;;;;;;75.28;13.45;;;;;;;;;;4987738;28;20880;-59
2023/07/28 11:09:36;;;;;;;16.30;10.23;;;;;;;;;;4988258;28;20758;-59
2023/07/28 11:12:02;;;;;;;20.00;11.70;;;;;;;;;;4988734;28;20213;-59
2023/07/28 11:14:29;;;;;;;16.05;10.10;;;;;;;;;;4988254;28;20224;-59
2023/07/28 11:16:54;;;;;;;14.90;9.65;;;;;;;;;;4987498;28;20267;-59
2023/07/28 11:19:24;;;;;;;14.32;8.88;;;;;;;;;;4988636;28;20318;-59
2023/07/28 11:21:51;;;;;;;25.50;10.20;;;;;;;;;;4969266;28;20237;-59
2023/07/28 11:24:18;;;;;;;21.92;9.52;;;;;;;;;;4986517;28;20205;-59
2023/07/28 11:26:43;;;;;;;16.95;9.98;;;;;;;;;;4989008;28;20239;-59
2023/07/28 11:29:08;;;;;;;13.55;10.00;;;;;;;;;;4970844;28;20677;-59
2023/07/28 11:31:33;;;;;;;13.45;9.82;;;;;;;;;;4990687;28;20308;-59
2023/07/28 11:33:59;;;;;;;24.42;10.40;;;;;;;;;;4991636;28;20209;-59
2023/07/28 11:36:25;;;;;;;12.27;9.63;;;;;;;;;;4986077;28;20267;-59
2023/07/28 11:38:50;;;;;;;14.05;10.45;;;;;;;;;;4989390;28;20568;-59
2023/07/28 11:41:16;;;;;;;15.90;10.50;;;;;;;;;;4988316;28;20225;-59
2023/07/28 11:43:46;;;;;;;12.40;9.73;;;;;;;;;;4962331;28;20281;-59
2023/07/28 11:46:31;;;;;;;13.13;10.25;;;;;;;;;;4974731;28;20232;-59
2023/07/28 11:49:06;;;;;;;12.88;9.43;;;;;;;;;;4988746;28;20673;-59
2023/07/28 11:51:31;;;;;;;18.00;9.43;;;;;;;;;;4986717;28;20336;-59
2023/07/28 11:53:57;;;;;;;45.58;11.23;;;;;;;;;;4971383;28;20308;-59
2023/07/28 11:56:22;;;;;;;11.55;8.82;;;;;;;;;;4988636;28;20567;-59
2023/07/28 11:58:50;;;;;;;15.65;9.90;;;;;;;;;;4985856;28;20307;-59
2023/07/28 12:01:16;;;;;;;13.52;9.25;;;;;;;;;;4970252;28;20229;-59
2023/07/28 12:03:41;;;;;;;18.15;10.57;;;;;;;;;;4988549;28;20348;-59
2023/07/28 12:06:09;;;;;;;17.23;11.02;;;;;;;;;;4987175;28;20665;-59
2023/07/28 12:08:36;;;;;;;14.00;11.30;;;;;;;;;;4987354;28;20232;-59
2023/07/28 12:11:01;;;;;;;14.57;11.27;;;;;;;;;;4987865;28;20272;-60
2023/07/28 12:13:27;;;;;;;14.00;11.20;;;;;;;;;;4988696;28;20224;-59
2023/07/28 12:15:52;;;;;;;13.65;10.23;;;;;;;;;;4986162;28;20606;-58
2023/07/28 12:18:19;;;;;;;15.05;10.52;;;;;;;;;;4987807;28;20220;-58
2023/07/28 12:20:46;;;;;;;15.75;10.80;;;;;;;;;;4988356;28;20228;-59
2023/07/28 12:23:12;;;;;;;15.60;10.27;;;;;;;;;;4986148;28;20221;-59
2023/07/28 12:25:37;;;;;;;18.55;9.60;;;;;;;;;;4987677;28;20564;-59
2023/07/28 12:28:02;;;;;;;18.98;9.05;;;;;;;;;;4987791;28;20213;-59
2023/07/28 12:30:28;;;;;;;15.65;9.98;;;;;;;;;;4987122;28;20308;-59
2023/07/28 12:32:53;;;;;;;12.55;9.43;;;;;;;;;;4986521;28;20300;-59
2023/07/28 12:35:19;;;;;;;16.95;8.38;;;;;;;;;;4988113;28;20217;-59
2023/07/28 12:37:45;;;;;;;13.43;9.05;;;;;;;;;;4988420;28;20217;-59
2023/07/28 12:40:10;;;;;;;10.35;8.48;;;;;;;;;;4984994;28;20321;-59
2023/07/28 12:42:35;;;;;;;11.02;8.13;;;;;;;;;;4988355;28;20231;-59
2023/07/28 12:45:01;;;;;;;11.15;9.13;;;;;;;;;;4988017;28;20220;-59
2023/07/28 12:47:26;;;;;;;12.25;9.27;;;;;;;;;;4986215;28;20220;-59
2023/07/28 12:49:51;;;;;;;29.58;9.98;;;;;;;;;;4987631;28;20954;-59
2023/07/28 12:52:17;;;;;;;13.07;8.35;;;;;;;;;;4987959;28;20220;-59
2023/07/28 12:54:43;;;;;;;34.65;9.75;;;;;;;;;;4987221;28;20217;-59
2023/07/28 12:57:10;;;;;;;18.33;8.48;;;;;;;;;;4985673;28;20213;-59
2023/07/28 12:59:35;;;;;;;66.22;11.30;;;;;;;;;;4988261;28;20217;-59
2023/07/28 13:02:01;;;;;;;40.97;9.90;;;;;;;;;;4987274;28;20236;-59
2023/07/28 13:04:26;;;;;;;10.93;8.00;;;;;;;;;;4985959;28;20228;-59
2023/07/28 13:06:52;;;;;;;19.60;8.07;;;;;;;;;;4987493;28;20240;-59
2023/07/28 13:09:17;;;;;;;25.88;8.25;;;;;;;;;;4987479;28;20244;-59
2023/07/28 13:11:42;;;;;;;19.63;7.70;;;;;;;;;;4986728;28;20210;-59
2023/07/28 13:14:07;;;;;;;15.27;8.35;;;;;;;;;;4986712;28;20221;-59
2023/07/28 13:16:33;;;;;;;12.77;7.95;;;;;;;;;;4991010;28;20205;-60
2023/07/28 13:18:59;;;;;;;22.58;8.25;;;;;;;;;;4987546;28;20213;-60
2023/07/28 13:21:25;;;;;;;12.25;7.57;;;;;;;;;;4970555;28;20225;-60
2023/07/28 13:23:50;;;;;;;12.93;8.20;;;;;;;;;;4986271;28;20704;-59
2023/07/28 13:26:15;;;;;;;9.98;6.50;;;;;;;;;;4986611;28;20229;-59
2023/07/28 13:28:46;;;;;;;8.93;7.30;;;;;;;;;;4987421;28;20237;-59
2023/07/28 13:31:11;;;;;;;15.95;6.72;;;;;;;;;;4983938;28;20278;-60
2023/07/28 13:33:37;;;;;;;36.75;10.50;;;;;;;;;;4974438;28;20241;-59
2023/07/28 13:36:03;;;;;;;9.70;5.63;;;;;;;;;;4973862;28;20225;-60
2023/07/28 13:38:29;;;;;;;9.93;6.53;;;;;;;;;;4974756;28;20221;-59
2023/07/28 13:40:54;;;;;;;12.20;6.03;;;;;;;;;;4977848;28;20252;-59
2023/07/28 13:43:19;;;;;;;9.15;6.65;;;;;;;;;;4984164;28;20262;-59
2023/07/28 13:45:45;;;;;;;9.30;7.20;;;;;;;;;;4985276;28;20667;-59
2023/07/28 13:48:10;;;;;;;9.45;6.43;;;;;;;;;;4983746;28;20259;-59
2023/07/28 13:50:35;;;;;;;6.15;4.57;;;;;;;;;;4983874;28;20216;-59
2023/07/28 13:53:01;;;;;;;21.23;5.85;;;;;;;;;;4984929;28;20693;-60
2023/07/28 13:55:26;;;;;;;15.82;5.00;;;;;;;;;;4982804;28;20399;-60
2023/07/28 13:57:51;;;;;;;6.97;5.20;;;;;;;;;;4972332;28;20740;-60
2023/07/28 14:00:17;;;;;;;21.25;5.15;;;;;;;;;;4975248;28;20916;-59
2023/07/28 14:02:42;;;;;;;8.90;4.97;;;;;;;;;;4980023;28;20331;-59
2023/07/28 14:05:08;;;;;;;15.38;5.10;;;;;;;;;;4982714;28;20275;-60
2023/07/28 14:07:34;;;;;;;7.70;4.97;;;;;;;;;;4984372;28;20225;-60
2023/07/28 14:10:00;;;;;;;5.80;4.10;;;;;;;;;;4984920;28;20576;-60
2023/07/28 14:12:25;;;;;;;7.22;4.38;;;;;;;;;;4983481;28;20677;-59